Del Norte — WDC2280 — position and weather

sailwx.info

Track history (hours):
 
Tides and Currents Weather Stations Pressure Air Temp Water Temp Dewpoint Dewpoint Depression Visibility Wind Speed Wind Dir Waves Ship Positions

Del Norte

Owner: Golden Gate Bridge,Hwy & Transportation District, Larkspur, CA. More information available from US FCC via Universal Licensing System and Coast Guard Vessel Documentation Center.

Last reported at 2014-Nov-02 20:12 UTC. Time now 2014-Nov-23 05:57 UTC.
Position N 32°38' W 117°06'.
Warning: this ship's position is 20 days out of date.

Length 48 m.

Type: High speed craft. MMSI: 366990520.

Date/timePositionNaut miles runAvg speedWind from/ knotsBaromVisibWave heightAir tempDewpointWater temp
2014-Nov-02 20:12N 32°38' W 117°06'4 6.0
2014-Nov-02 19:34N 32°41' W 117°09'1212.1
2014-Nov-02 18:33N 32°44' W 117°23'1717.4
2014-Nov-02 17:33N 32°56' W 117°38'1716.8
2014-Nov-02 16:33N 33°07' W 117°53'1716.6
2014-Nov-02 15:33N 33°17' W 118°09'9216.9
2014-Nov-02 10:08N 34°08' W 119°41'1216.4
2014-Nov-02 09:24N 34°11' W 119°55'17615.6
2014-Nov-01 22:08N 36°38' W 121°54'1 2.3
2014-Nov-01 21:33N 36°37' W 121°54'1 0.6
2014-Nov-01 20:34N 36°37' W 121°54'7625.4
2014-Nov-01 17:34N 37°47' W 122°32'10 9.5
2014-Nov-01 16:33N 37°57' W 122°31'0 0.0
2014-Nov-01 01:33N 37°57' W 122°31'1110.5
2014-Nov-01 00:33N 37°48' W 122°24'0 0.1
2014-Oct-31 23:33N 37°48' W 122°24'8 8.2
2014-Oct-31 22:34N 37°55' W 122°28'3 2.6
2014-Oct-31 21:33N 37°57' W 122°31'0 0.0
2014-Oct-31 20:33N 37°57' W 122°31'0 0.0
2014-Oct-31 19:33N 37°57' W 122°31'0 0.0
2014-Oct-31 18:33N 37°57' W 122°31'2 2.5
2014-Oct-31 17:34N 37°55' W 122°28'2 2.0
2014-Oct-31 16:34N 37°56' W 122°30'1010.0
2014-Oct-31 15:33N 37°48' W 122°23'1010.5
2014-Oct-31 14:33N 37°57' W 122°30'0 0.1
2014-Oct-31 13:33N 37°57' W 122°31'10 0.8
2014-Oct-31 00:34N 37°49' W 122°23'10 9.7
2014-Oct-30 23:33N 37°57' W 122°30'5 4.6
2014-Oct-30 22:33N 37°54' W 122°26'5 4.7
2014-Oct-30 21:33N 37°57' W 122°31'0 0.0
2014-Oct-30 20:33N 37°57' W 122°31'0 0.0
2014-Oct-30 19:34N 37°57' W 122°31'0 0.0
2014-Oct-30 18:34N 37°57' W 122°31'0 0.0
2014-Oct-30 17:33N 37°57' W 122°31'0 0.0
2014-Oct-30 16:33N 37°57' W 122°31'1 0.7
2014-Oct-30 15:33N 37°56' W 122°30'1 0.5
2014-Oct-30 14:33N 37°57' W 122°30'10 0.7
2014-Oct-30 00:34N 37°48' W 122°23'1010.0
2014-Oct-29 23:33N 37°57' W 122°30'5 5.2
2014-Oct-29 22:34N 37°53' W 122°26'5 5.2
2014-Oct-29 21:33N 37°57' W 122°30'1010.4
2014-Oct-29 20:34N 37°48' W 122°23'1010.4
2014-Oct-29 19:33N 37°57' W 122°30'7 6.8
2014-Oct-29 18:34N 37°52' W 122°25'6 5.7
2014-Oct-29 17:34N 37°56' W 122°29'3 2.8
2014-Oct-29 16:34N 37°54' W 122°27'3 3.2
2014-Oct-29 15:33N 37°56' W 122°30'1 0.7
2014-Oct-29 14:28N 37°57' W 122°30'0 0.1
2014-Oct-29 13:33N 37°57' W 122°31'9 0.7
2014-Oct-29 00:34N 37°49' W 122°23'9 9.2
2014-Oct-28 23:33N 37°57' W 122°30'2 2.2
2014-Oct-28 22:33N 37°56' W 122°28'2 2.2
2014-Oct-28 21:33N 37°57' W 122°31'0 0.0
2014-Oct-28 20:34N 37°57' W 122°31'0 0.0
2014-Oct-28 19:34N 37°57' W 122°31'0 0.0
2014-Oct-28 18:34N 37°57' W 122°31'0 0.0
2014-Oct-28 17:33N 37°57' W 122°31'0 0.0
2014-Oct-28 16:33N 37°57' W 122°31'1 1.2
2014-Oct-28 15:34N 37°56' W 122°29'1 0.9
2014-Oct-28 14:34N 37°57' W 122°30'8 0.6
2014-Oct-28 00:34N 37°50' W 122°24'9 8.7
2014-Oct-27 23:34N 37°57' W 122°30'5 5.4
2014-Oct-27 22:33N 37°53' W 122°26'5 5.5
2014-Oct-27 21:33N 37°57' W 122°31'0 0.0
2014-Oct-27 20:33N 37°57' W 122°31'0 0.0
2014-Oct-27 19:33N 37°57' W 122°31'0 0.0
2014-Oct-27 18:33N 37°57' W 122°31'0 0.0
2014-Oct-27 17:33N 37°57' W 122°31'0 0.0
2014-Oct-27 16:33N 37°57' W 122°31'1 0.9
2014-Oct-27 15:34N 37°56' W 122°30'1 0.8
2014-Oct-27 14:33N 37°57' W 122°30'  
2014-Oct-25 01:07N 37°57' W 122°30'1018.7
2014-Oct-25 00:34N 37°48' W 122°23'1010.4
2014-Oct-24 23:33N 37°57' W 122°30'3 3.3
2014-Oct-24 22:34N 37°55' W 122°27'3 3.4
2014-Oct-24 21:33N 37°57' W 122°31'0 0.0
2014-Oct-24 20:33N 37°57' W 122°31'0 0.0
2014-Oct-24 19:33N 37°57' W 122°31'0 0.0
2014-Oct-24 18:33N 37°57' W 122°31'0 0.0
2014-Oct-24 17:33N 37°57' W 122°31'0 0.0
2014-Oct-24 16:33N 37°57' W 122°31'2 1.8
2014-Oct-24 15:34N 37°56' W 122°29'2 1.6
2014-Oct-24 14:33N 37°57' W 122°30'0 0.0
2014-Oct-24 01:22N 37°57' W 122°31'1113.1
2014-Oct-24 00:33N 37°48' W 122°23'1010.3
2014-Oct-23 23:34N 37°57' W 122°30'1010.1
2014-Oct-23 22:34N 37°48' W 122°23'1010.3
2014-Oct-23 21:33N 37°57' W 122°31'0 0.0
2014-Oct-23 20:33N 37°57' W 122°31'  
Track history (hours):
 
Tides and Currents Weather Stations Pressure Air Temp Water Temp Dewpoint Dewpoint Depression Visibility Wind Speed Wind Dir Waves Ship Positions

Del Norte

Owner: Golden Gate Bridge,Hwy & Transportation District, Larkspur, CA. More information available from US FCC via Universal Licensing System and Coast Guard Vessel Documentation Center.

Last reported at 2014-Nov-02 20:12 UTC. Time now 2014-Nov-23 05:57 UTC.
Position N 32°38' W 117°06'.
Warning: this ship's position is 20 days out of date.

Length 48 m.

Type: High speed craft. MMSI: 366990520.

Date/timePositionNaut miles runAvg speedWind from/ knotsBaromVisibWave heightAir tempDewpointWater temp
2014-Nov-02 20:12N 32°38' W 117°06'4 6.0
2014-Nov-02 19:34N 32°41' W 117°09'1212.1
2014-Nov-02 18:33N 32°44' W 117°23'1717.4
2014-Nov-02 17:33N 32°56' W 117°38'1716.8
2014-Nov-02 16:33N 33°07' W 117°53'1716.6
2014-Nov-02 15:33N 33°17' W 118°09'9216.9
2014-Nov-02 10:08N 34°08' W 119°41'1216.4
2014-Nov-02 09:24N 34°11' W 119°55'17615.6
2014-Nov-01 22:08N 36°38' W 121°54'1 2.3
2014-Nov-01 21:33N 36°37' W 121°54'1 0.6
2014-Nov-01 20:34N 36°37' W 121°54'7625.4
2014-Nov-01 17:34N 37°47' W 122°32'10 9.5
2014-Nov-01 16:33N 37°57' W 122°31'0 0.0
2014-Nov-01 01:33N 37°57' W 122°31'1110.5
2014-Nov-01 00:33N 37°48' W 122°24'0 0.1
2014-Oct-31 23:33N 37°48' W 122°24'8 8.2
2014-Oct-31 22:34N 37°55' W 122°28'3 2.6
2014-Oct-31 21:33N 37°57' W 122°31'0 0.0
2014-Oct-31 20:33N 37°57' W 122°31'0 0.0
2014-Oct-31 19:33N 37°57' W 122°31'0 0.0
2014-Oct-31 18:33N 37°57' W 122°31'2 2.5
2014-Oct-31 17:34N 37°55' W 122°28'2 2.0
2014-Oct-31 16:34N 37°56' W 122°30'1010.0
2014-Oct-31 15:33N 37°48' W 122°23'1010.5
2014-Oct-31 14:33N 37°57' W 122°30'0 0.1
2014-Oct-31 13:33N 37°57' W 122°31'10 0.8
2014-Oct-31 00:34N 37°49' W 122°23'10 9.7
2014-Oct-30 23:33N 37°57' W 122°30'5 4.6
2014-Oct-30 22:33N 37°54' W 122°26'5 4.7
2014-Oct-30 21:33N 37°57' W 122°31'0 0.0
2014-Oct-30 20:33N 37°57' W 122°31'0 0.0
2014-Oct-30 19:34N 37°57' W 122°31'0 0.0
2014-Oct-30 18:34N 37°57' W 122°31'0 0.0
2014-Oct-30 17:33N 37°57' W 122°31'0 0.0
2014-Oct-30 16:33N 37°57' W 122°31'1 0.7
2014-Oct-30 15:33N 37°56' W 122°30'1 0.5
2014-Oct-30 14:33N 37°57' W 122°30'10 0.7
2014-Oct-30 00:34N 37°48' W 122°23'1010.0
2014-Oct-29 23:33N 37°57' W 122°30'5 5.2
2014-Oct-29 22:34N 37°53' W 122°26'5 5.2
2014-Oct-29 21:33N 37°57' W 122°30'1010.4
2014-Oct-29 20:34N 37°48' W 122°23'1010.4
2014-Oct-29 19:33N 37°57' W 122°30'7 6.8
2014-Oct-29 18:34N 37°52' W 122°25'6 5.7
2014-Oct-29 17:34N 37°56' W 122°29'3 2.8
2014-Oct-29 16:34N 37°54' W 122°27'3 3.2
2014-Oct-29 15:33N 37°56' W 122°30'1 0.7
2014-Oct-29 14:28N 37°57' W 122°30'0 0.1
2014-Oct-29 13:33N 37°57' W 122°31'9 0.7
2014-Oct-29 00:34N 37°49' W 122°23'9 9.2
2014-Oct-28 23:33N 37°57' W 122°30'2 2.2
2014-Oct-28 22:33N 37°56' W 122°28'2 2.2
2014-Oct-28 21:33N 37°57' W 122°31'0 0.0
2014-Oct-28 20:34N 37°57' W 122°31'0 0.0
2014-Oct-28 19:34N 37°57' W 122°31'0 0.0
2014-Oct-28 18:34N 37°57' W 122°31'0 0.0
2014-Oct-28 17:33N 37°57' W 122°31'0 0.0
2014-Oct-28 16:33N 37°57' W 122°31'1 1.2
2014-Oct-28 15:34N 37°56' W 122°29'1 0.9
2014-Oct-28 14:34N 37°57' W 122°30'8 0.6
2014-Oct-28 00:34N 37°50' W 122°24'9 8.7
2014-Oct-27 23:34N 37°57' W 122°30'5 5.4
2014-Oct-27 22:33N 37°53' W 122°26'5 5.5
2014-Oct-27 21:33N 37°57' W 122°31'0 0.0
2014-Oct-27 20:33N 37°57' W 122°31'0 0.0
2014-Oct-27 19:33N 37°57' W 122°31'0 0.0
2014-Oct-27 18:33N 37°57' W 122°31'0 0.0
2014-Oct-27 17:33N 37°57' W 122°31'0 0.0
2014-Oct-27 16:33N 37°57' W 122°31'1 0.9
2014-Oct-27 15:34N 37°56' W 122°30'1 0.8
2014-Oct-27 14:33N 37°57' W 122°30'  
2014-Oct-25 01:07N 37°57' W 122°30'1018.7
2014-Oct-25 00:34N 37°48' W 122°23'1010.4
2014-Oct-24 23:33N 37°57' W 122°30'3 3.3
2014-Oct-24 22:34N 37°55' W 122°27'3 3.4
2014-Oct-24 21:33N 37°57' W 122°31'0 0.0
2014-Oct-24 20:33N 37°57' W 122°31'0 0.0
2014-Oct-24 19:33N 37°57' W 122°31'0 0.0
2014-Oct-24 18:33N 37°57' W 122°31'0 0.0
2014-Oct-24 17:33N 37°57' W 122°31'0 0.0
2014-Oct-24 16:33N 37°57' W 122°31'2 1.8
2014-Oct-24 15:34N 37°56' W 122°29'2 1.6
2014-Oct-24 14:33N 37°57' W 122°30'0 0.0
2014-Oct-24 01:22N 37°57' W 122°31'1113.1
2014-Oct-24 00:33N 37°48' W 122°23'1010.3
2014-Oct-23 23:34N 37°57' W 122°30'1010.1
2014-Oct-23 22:34N 37°48' W 122°23'1010.3
2014-Oct-23 21:33N 37°57' W 122°31'0 0.0
2014-Oct-23 20:33N 37°57' W 122°31'  

Dump ship's entire track history